createdAt,value
2022-12-24T00:01:38.718Z,90.13
2022-12-24T00:04:07.193Z,87.30
2022-12-24T00:06:35.508Z,84.43
2022-12-24T00:09:04.092Z,84.90
2022-12-24T00:11:32.472Z,90.30
2022-12-24T00:14:00.796Z,89.67
2022-12-24T00:16:29.326Z,81.60
2022-12-24T00:18:59.039Z,82.73
2022-12-24T00:21:27.340Z,83.23
2022-12-24T00:23:55.615Z,90.27
2022-12-24T00:26:23.868Z,79.90
2022-12-24T00:28:52.401Z,87.83
2022-12-24T00:31:20.979Z,82.60
2022-12-24T00:33:49.742Z,81.33
2022-12-24T00:36:20.494Z,90.10
2022-12-24T00:38:49.165Z,82.40
2022-12-24T00:41:29.187Z,86.30
2022-12-24T00:43:59.453Z,89.43
2022-12-24T00:46:29.795Z,87.27
2022-12-24T00:48:58.169Z,86.13
2022-12-24T00:51:28.172Z,90.33
2022-12-24T00:53:57.029Z,86.33
2022-12-24T00:56:25.353Z,94.50
2022-12-24T00:58:54.005Z,86.40
2022-12-24T01:01:23.094Z,97.07
2022-12-24T01:03:52.341Z,96.77
2022-12-24T01:06:21.715Z,93.93
2022-12-24T01:08:53.180Z,88.20
2022-12-24T01:11:21.407Z,96.47
2022-12-24T01:13:49.657Z,98.00
2022-12-24T01:16:21.331Z,86.87
2022-12-24T01:18:49.816Z,92.37
2022-12-24T01:21:18.467Z,89.83
2022-12-24T01:23:46.946Z,94.77
2022-12-24T01:26:16.663Z,94.83
2022-12-24T01:28:44.971Z,105.18
2022-12-24T01:31:14.727Z,104.27
2022-12-24T01:33:43.477Z,96.43
2022-12-24T01:36:12.386Z,97.43
2022-12-24T01:38:40.879Z,94.77
2022-12-24T01:41:26.413Z,104.20
2022-12-24T01:43:56.125Z,98.97
2022-12-24T01:46:27.943Z,95.47
2022-12-24T01:48:59.090Z,99.97
2022-12-24T01:51:31.723Z,95.27
2022-12-24T01:54:04.511Z,111.28
2022-12-24T01:56:34.472Z,96.73
2022-12-24T01:59:09.128Z,105.70
2022-12-24T02:01:37.964Z,103.07
2022-12-24T02:04:12.986Z,106.70
2022-12-24T02:06:41.271Z,89.87
2022-12-24T02:09:09.557Z,94.73
2022-12-24T02:11:40.391Z,94.63
2022-12-24T02:14:10.244Z,96.33
2022-12-24T02:16:45.974Z,97.13
2022-12-24T02:19:36.159Z,96.60
2022-12-24T02:22:09.401Z,95.13
2022-12-24T02:25:04.167Z,102.13
2022-12-24T02:27:46.765Z,96.93
2022-12-24T02:30:19.754Z,100.67
2022-12-24T02:33:05.612Z,97.43
2022-12-24T02:35:41.608Z,97.47
2022-12-24T02:38:16.182Z,101.73
2022-12-24T02:40:49.013Z,92.23
2022-12-24T02:43:21.675Z,103.07
2022-12-24T02:45:59.351Z,97.73
2022-12-24T02:48:30.258Z,99.00
2022-12-24T02:51:05.237Z,101.50
2022-12-24T02:53:34.006Z,97.40
2022-12-24T02:56:24.177Z,97.23
2022-12-24T02:59:07.655Z,109.30
2022-12-24T03:01:48.505Z,113.63
2022-12-24T03:04:39.670Z,95.23
2022-12-24T03:07:17.263Z,95.67
2022-12-24T03:09:57.042Z,92.17
2022-12-24T03:12:31.922Z,95.03
2022-12-24T03:15:01.267Z,104.97
2022-12-24T03:17:32.897Z,93.30
2022-12-24T03:20:01.277Z,97.63
2022-12-24T03:22:31.312Z,93.13
2022-12-24T03:24:59.706Z,99.07
2022-12-24T03:27:30.506Z,93.10
2022-12-24T03:29:59.553Z,93.63
2022-12-24T03:32:34.983Z,94.20
2022-12-24T03:35:03.292Z,96.87
2022-12-24T03:37:31.617Z,97.10
2022-12-24T03:40:00.180Z,96.07
2022-12-24T03:42:28.572Z,95.80
2022-12-24T03:44:56.861Z,101.73
2022-12-24T03:47:25.153Z,107.43
2022-12-24T03:49:54.877Z,120.75
2022-12-24T03:52:23.129Z,99.60
2022-12-24T03:54:51.383Z,99.03
2022-12-24T03:57:19.653Z,107.33
2022-12-24T03:59:47.982Z,97.80
2022-12-24T04:02:16.452Z,94.43
2022-12-24T04:04:44.911Z,98.97
2022-12-24T04:07:14.595Z,107.53
2022-12-24T04:09:42.987Z,97.33
2022-12-24T04:12:11.262Z,103.03
2022-12-24T04:14:39.515Z,109.73
2022-12-24T04:17:08.014Z,103.07
2022-12-24T04:19:37.125Z,101.07
2022-12-24T04:22:05.435Z,110.50
2022-12-24T04:24:35.163Z,104.23
2022-12-24T04:27:03.430Z,101.93
2022-12-24T04:29:31.667Z,111.77
2022-12-24T04:32:00.006Z,95.70
2022-12-24T04:34:28.618Z,101.00
2022-12-24T04:36:56.897Z,101.37
2022-12-24T04:39:25.231Z,98.67
2022-12-24T04:41:54.895Z,107.87
2022-12-24T04:44:23.201Z,92.23
2022-12-24T04:46:51.479Z,95.07
2022-12-24T04:49:19.757Z,104.00
2022-12-24T04:51:47.991Z,94.63
2022-12-24T04:54:17.491Z,102.43
2022-12-24T04:56:45.755Z,101.13
2022-12-24T04:59:15.428Z,98.77
2022-12-24T05:01:43.877Z,97.77
2022-12-24T05:04:12.331Z,99.83
2022-12-24T05:06:40.634Z,100.87
2022-12-24T05:09:08.905Z,97.30
2022-12-24T05:11:37.207Z,98.07
2022-12-24T05:14:05.754Z,96.40
2022-12-24T05:16:35.440Z,92.80
2022-12-24T05:19:03.847Z,100.97
2022-12-24T05:21:32.123Z,100.43
2022-12-24T05:24:17.625Z,96.17
2022-12-24T05:26:47.844Z,98.67
2022-12-24T05:29:16.649Z,102.13
2022-12-24T05:31:47.502Z,97.17
2022-12-24T05:34:16.766Z,103.83
2022-12-24T05:36:45.987Z,88.03
2022-12-24T05:39:16.877Z,100.93
2022-12-24T05:41:46.206Z,107.10
2022-12-24T05:44:15.019Z,85.93
2022-12-24T05:46:45.293Z,101.47
2022-12-24T05:49:13.678Z,100.47
2022-12-24T05:51:42.125Z,97.57
2022-12-24T05:54:10.966Z,105.75
2022-12-24T05:56:39.215Z,96.67
2022-12-24T05:59:07.469Z,94.17
2022-12-24T06:01:35.831Z,101.10
2022-12-24T06:04:05.856Z,95.17
2022-12-24T06:06:34.234Z,100.87
2022-12-24T06:09:02.506Z,91.40
2022-12-24T06:11:30.923Z,91.90
2022-12-24T06:13:59.204Z,94.63
2022-12-24T06:16:28.111Z,91.40
2022-12-24T06:18:56.487Z,91.37
2022-12-24T06:21:26.424Z,92.13
2022-12-24T06:23:54.793Z,90.43
2022-12-24T06:26:24.128Z,90.13
2022-12-24T06:28:53.285Z,93.87
2022-12-24T06:31:23.589Z,86.10
2022-12-24T06:33:52.784Z,81.13
2022-12-24T06:36:22.997Z,88.10
2022-12-24T06:38:53.116Z,89.07
2022-12-24T06:41:22.037Z,83.83
2022-12-24T06:43:51.803Z,81.93
2022-12-24T06:46:21.140Z,70.40
2022-12-24T06:48:49.773Z,81.47
2022-12-24T06:51:20.065Z,72.23
2022-12-24T06:53:50.680Z,75.03
2022-12-24T06:56:22.019Z,75.27
2022-12-24T06:58:50.602Z,82.50
2022-12-24T07:01:21.343Z,69.90
2022-12-24T07:03:49.845Z,73.07
2022-12-24T07:06:21.257Z,82.13
2022-12-24T07:08:49.595Z,68.25
2022-12-24T07:11:20.155Z,77.13
2022-12-24T07:13:49.277Z,81.13
2022-12-24T07:16:18.353Z,75.90
2022-12-24T07:18:46.756Z,71.40
2022-12-24T07:21:15.128Z,73.40
2022-12-24T07:23:43.580Z,74.57
2022-12-24T07:26:12.706Z,72.47
2022-12-24T07:28:42.391Z,76.00
2022-12-24T07:31:10.823Z,84.23
2022-12-24T07:33:39.175Z,68.30
2022-12-24T07:36:09.971Z,72.73
2022-12-24T07:38:39.818Z,75.27
2022-12-24T07:41:08.128Z,69.40
2022-12-24T07:43:36.410Z,69.53
2022-12-24T07:46:06.457Z,70.45
2022-12-24T07:48:34.940Z,64.53
2022-12-24T07:51:03.653Z,64.17
2022-12-24T07:53:32.658Z,64.00
2022-12-24T07:56:00.975Z,62.93
2022-12-24T07:58:29.715Z,62.73
2022-12-24T08:01:01.965Z,59.97
2022-12-24T08:03:31.733Z,67.83
2022-12-24T08:06:00.032Z,62.93
2022-12-24T08:08:28.631Z,62.80
2022-12-24T08:11:03.446Z,60.07
2022-12-24T08:13:32.321Z,60.90
2022-12-24T08:16:01.077Z,61.80
2022-12-24T08:18:29.444Z,55.50
2022-12-24T08:20:59.151Z,61.90
2022-12-24T08:23:27.548Z,60.90
2022-12-24T08:25:55.829Z,111.70
2022-12-24T08:28:24.143Z,59.10
2022-12-24T08:30:52.728Z,55.30
2022-12-24T08:33:22.247Z,53.17
2022-12-24T08:35:51.629Z,53.50
2022-12-24T08:38:21.669Z,103.90
2022-12-24T08:40:50.435Z,63.17
2022-12-24T08:43:19.460Z,57.03
2022-12-24T08:45:52.303Z,55.80
2022-12-24T08:48:21.036Z,51.90
2022-12-24T08:50:52.935Z,54.03
2022-12-24T08:53:33.890Z,54.03
2022-12-24T08:56:04.426Z,53.03
2022-12-24T08:58:33.183Z,50.30
2022-12-24T09:01:02.295Z,51.20
2022-12-24T09:03:30.884Z,53.07
2022-12-24T09:05:59.199Z,51.60
2022-12-24T09:08:29.143Z,49.80
2022-12-24T09:10:57.428Z,54.90
2022-12-24T09:13:25.809Z,57.40
2022-12-24T09:15:57.348Z,52.50
2022-12-24T09:18:25.641Z,57.13
2022-12-24T09:20:59.599Z,56.70
2022-12-24T09:23:29.721Z,50.37
2022-12-24T09:25:59.873Z,52.77
2022-12-24T09:28:28.184Z,52.73
2022-12-24T09:30:58.451Z,54.50
2022-12-24T09:33:27.376Z,57.20
2022-12-24T09:35:56.212Z,51.97
2022-12-24T09:38:24.992Z,60.20
2022-12-24T09:40:55.814Z,46.17
2022-12-24T09:43:26.012Z,50.80
2022-12-24T09:46:07.688Z,53.93
2022-12-24T09:48:37.952Z,55.40
2022-12-24T09:51:09.740Z,57.77
2022-12-24T09:53:43.996Z,56.67
2022-12-24T09:56:19.457Z,52.27
2022-12-24T09:58:50.763Z,67.38
2022-12-24T10:01:21.076Z,52.77
2022-12-24T10:03:49.903Z,59.20
2022-12-24T10:06:26.862Z,55.87
2022-12-24T10:09:11.573Z,54.67
2022-12-24T10:11:48.868Z,53.87
2022-12-24T10:14:38.576Z,54.42
2022-12-24T10:17:28.145Z,55.83
2022-12-24T10:20:07.554Z,53.63
2022-12-24T10:22:46.066Z,56.87
2022-12-24T10:25:20.881Z,54.20
2022-12-24T10:27:52.188Z,57.92
2022-12-24T10:30:23.303Z,57.60
2022-12-24T10:32:53.436Z,52.63
2022-12-24T10:35:25.138Z,51.20
2022-12-24T10:37:54.067Z,57.37
2022-12-24T10:40:35.617Z,58.17
2022-12-24T10:43:14.968Z,49.80
2022-12-24T10:45:48.179Z,52.93
2022-12-24T10:48:25.221Z,56.73
2022-12-24T10:50:58.465Z,50.13
2022-12-24T10:53:35.092Z,48.60
2022-12-24T10:56:07.157Z,63.53
2022-12-24T10:58:37.371Z,58.03
2022-12-24T11:01:06.137Z,54.70
2022-12-24T11:03:35.742Z,54.92
2022-12-24T11:06:07.189Z,54.87
2022-12-24T11:08:36.273Z,53.10
2022-12-24T11:11:07.112Z,53.27
2022-12-24T11:13:39.987Z,56.70
2022-12-24T11:16:16.727Z,55.90
2022-12-24T11:18:51.525Z,54.80
2022-12-24T11:21:25.779Z,57.63
2022-12-24T11:23:56.857Z,52.10
2022-12-24T11:26:27.141Z,54.30
2022-12-24T11:29:16.443Z,53.23
2022-12-24T11:31:49.901Z,49.03
2022-12-24T11:34:27.357Z,51.67
2022-12-24T11:37:14.962Z,54.13
2022-12-24T11:39:48.683Z,50.33
2022-12-24T11:42:33.888Z,54.00
2022-12-24T11:45:09.149Z,50.17
2022-12-24T11:47:40.301Z,57.63
2022-12-24T11:50:27.212Z,48.63
2022-12-24T11:53:06.357Z,50.93
2022-12-24T11:55:45.136Z,53.93
2022-12-24T11:58:27.611Z,51.67
2022-12-24T12:01:15.410Z,55.73
2022-12-24T12:03:48.439Z,57.40
2022-12-24T12:06:27.477Z,56.23
2022-12-24T12:08:58.229Z,52.93
2022-12-24T12:11:28.637Z,53.80
2022-12-24T12:13:59.481Z,57.33
2022-12-24T12:16:54.413Z,52.57
2022-12-24T12:19:26.180Z,58.90
2022-12-24T12:21:54.487Z,59.17
2022-12-24T12:24:32.375Z,53.93
2022-12-24T12:27:15.272Z,54.67
2022-12-24T12:29:47.887Z,52.30
2022-12-24T12:32:26.560Z,51.70
2022-12-24T12:35:03.847Z,54.13
2022-12-24T12:37:36.935Z,54.03
2022-12-24T12:40:13.212Z,52.33
2022-12-24T12:42:41.884Z,51.27
2022-12-24T12:45:34.295Z,50.80
2022-12-24T12:48:15.036Z,60.07
2022-12-24T12:50:50.933Z,55.17
2022-12-24T12:53:31.786Z,49.23
2022-12-24T12:56:07.855Z,56.53
2022-12-24T12:58:40.042Z,51.40
2022-12-24T13:01:14.725Z,55.17
2022-12-24T13:04:23.221Z,50.97
2022-12-24T13:07:21.386Z,54.40
2022-12-24T13:10:20.872Z,54.97
2022-12-24T13:13:07.735Z,56.67
2022-12-24T13:15:51.153Z,61.10
2022-12-24T13:18:34.775Z,52.30
2022-12-24T13:21:04.817Z,55.03
2022-12-24T13:23:33.508Z,56.07
2022-12-24T13:26:12.545Z,54.30
2022-12-24T13:28:41.032Z,56.37
2022-12-24T13:31:30.909Z,61.27
2022-12-24T13:34:04.266Z,58.27
2022-12-24T13:37:21.171Z,61.73
2022-12-24T13:40:19.939Z,58.13
2022-12-24T13:42:49.749Z,66.13
2022-12-24T13:45:46.988Z,59.97
2022-12-24T13:48:37.579Z,67.33
2022-12-24T13:51:21.194Z,65.87
2022-12-24T13:53:58.952Z,57.83
2022-12-24T13:56:28.531Z,63.87
2022-12-24T13:59:13.244Z,63.07
2022-12-24T14:01:44.619Z,62.43
2022-12-24T14:04:25.391Z,62.30
2022-12-24T14:06:55.741Z,55.97
2022-12-24T14:09:26.952Z,59.60
2022-12-24T14:12:31.898Z,60.38
2022-12-24T14:15:00.176Z,57.07
2022-12-24T14:17:31.192Z,68.33
2022-12-24T14:20:01.556Z,72.60
2022-12-24T14:22:32.972Z,67.73
2022-12-24T14:25:04.396Z,65.20
2022-12-24T14:27:40.124Z,56.70
2022-12-24T14:30:18.792Z,52.63
2022-12-24T14:32:48.354Z,52.10
2022-12-24T14:35:19.294Z,53.17
2022-12-24T14:37:50.426Z,59.33
2022-12-24T14:40:24.000Z,52.67
2022-12-24T14:43:02.329Z,61.43
2022-12-24T14:45:35.772Z,50.00
2022-12-24T14:48:13.638Z,55.17
2022-12-24T14:51:07.063Z,62.63
2022-12-24T14:53:53.768Z,61.40
2022-12-24T14:56:24.108Z,57.43
2022-12-24T14:58:52.807Z,63.97
2022-12-24T15:01:24.169Z,58.20
2022-12-24T15:04:06.433Z,59.37
2022-12-24T15:06:37.781Z,55.67
2022-12-24T15:09:06.462Z,61.97
2022-12-24T15:11:37.168Z,57.77
2022-12-24T15:14:06.902Z,54.63
2022-12-24T15:16:37.655Z,58.30
2022-12-24T15:19:09.140Z,61.90
2022-12-24T15:21:41.682Z,55.80
2022-12-24T15:24:25.466Z,61.20
2022-12-24T15:26:55.585Z,61.30
2022-12-24T15:29:27.856Z,54.47
2022-12-24T15:31:57.861Z,56.77
2022-12-24T15:34:31.525Z,54.57
2022-12-24T15:37:04.842Z,57.43
2022-12-24T15:39:33.908Z,58.33
2022-12-24T15:42:18.756Z,62.20
2022-12-24T15:44:58.217Z,54.27
2022-12-24T15:47:30.519Z,55.33
2022-12-24T15:49:58.940Z,50.00
2022-12-24T15:52:28.021Z,54.70
2022-12-24T15:54:58.290Z,56.90
2022-12-24T15:57:31.499Z,58.97
2022-12-24T16:00:01.339Z,63.73
2022-12-24T16:02:41.420Z,62.23
2022-12-24T16:05:34.732Z,53.63
2022-12-24T16:11:28.534Z,55.03
2022-12-24T16:14:05.337Z,54.60
2022-12-24T16:16:37.289Z,56.53
2022-12-24T16:19:08.499Z,58.27
2022-12-24T16:21:39.858Z,61.90
2022-12-24T16:24:16.303Z,61.13
2022-12-24T16:26:44.802Z,58.93
2022-12-24T16:29:15.331Z,58.83
2022-12-24T16:31:47.340Z,68.17
2022-12-24T16:34:17.266Z,65.37
2022-12-24T16:36:47.162Z,62.13
2022-12-24T16:39:24.755Z,59.23
2022-12-24T16:42:11.154Z,62.87
2022-12-24T16:44:42.931Z,67.68
2022-12-24T16:47:14.498Z,59.83
2022-12-24T16:49:42.940Z,60.80
2022-12-24T16:52:18.182Z,63.30
2022-12-24T16:54:46.420Z,60.43
2022-12-24T16:57:14.723Z,55.53
2022-12-24T16:59:44.552Z,62.30
2022-12-24T17:02:15.362Z,59.17
2022-12-24T17:04:44.393Z,53.30
2022-12-24T17:07:12.935Z,56.90
2022-12-24T17:09:41.250Z,61.90
2022-12-24T17:12:09.817Z,61.10
2022-12-24T17:14:39.658Z,56.90
2022-12-24T17:17:12.205Z,59.70
2022-12-24T17:19:40.451Z,61.20
2022-12-24T17:22:08.786Z,59.57
2022-12-24T17:24:37.123Z,60.53
2022-12-24T17:27:05.517Z,62.43
2022-12-24T17:29:33.986Z,59.60
2022-12-24T17:32:02.540Z,59.80
2022-12-24T17:34:32.268Z,51.97
2022-12-24T17:37:00.573Z,53.93
2022-12-24T17:39:28.873Z,56.43
2022-12-24T17:41:57.925Z,54.90
2022-12-24T17:44:26.305Z,54.90
2022-12-24T17:46:54.705Z,58.37
2022-12-24T17:49:23.079Z,51.27
2022-12-24T17:51:52.790Z,52.77
2022-12-24T17:54:21.065Z,65.70
2022-12-24T17:56:49.339Z,54.30
2022-12-24T17:59:18.220Z,55.97
2022-12-24T18:01:46.642Z,60.60
2022-12-24T18:04:15.056Z,53.27
2022-12-24T18:06:49.018Z,62.38
2022-12-24T18:09:19.185Z,59.23
2022-12-24T18:11:47.663Z,50.70
2022-12-24T18:14:16.082Z,60.30
2022-12-24T18:16:45.086Z,56.93
2022-12-24T18:19:13.890Z,61.77
2022-12-24T18:21:42.271Z,60.47
2022-12-24T18:24:11.867Z,55.27
2022-12-24T18:26:41.799Z,54.70
2022-12-24T18:29:11.120Z,59.10
2022-12-24T18:31:39.972Z,49.93
2022-12-24T18:34:10.492Z,56.00
2022-12-24T18:36:38.826Z,59.80
2022-12-24T18:39:07.328Z,55.47
2022-12-24T18:41:36.254Z,58.57
2022-12-24T18:44:06.115Z,60.67
2022-12-24T18:46:35.129Z,51.87
2022-12-24T18:49:03.854Z,50.03
2022-12-24T18:51:34.399Z,58.13
2022-12-24T18:54:03.647Z,52.70
2022-12-24T18:56:32.580Z,54.00
2022-12-24T18:59:03.152Z,55.67
2022-12-24T19:01:35.059Z,56.53
2022-12-24T19:04:04.208Z,56.13
2022-12-24T19:06:32.503Z,56.67
2022-12-24T19:09:01.739Z,49.00
2022-12-24T19:11:32.274Z,54.30
2022-12-24T19:14:01.377Z,54.60
2022-12-24T19:16:31.803Z,54.63
2022-12-24T19:19:01.988Z,58.43
2022-12-24T19:21:30.273Z,62.97
2022-12-24T19:23:58.606Z,57.87
2022-12-24T19:26:27.236Z,64.07
2022-12-24T19:28:55.811Z,58.67
2022-12-24T19:31:25.823Z,61.50
2022-12-24T19:33:56.442Z,60.80
2022-12-24T19:36:28.945Z,60.83
2022-12-24T19:38:57.821Z,59.77
2022-12-24T19:41:28.410Z,61.43
2022-12-24T19:43:58.626Z,57.10
2022-12-24T19:46:29.250Z,53.43
2022-12-24T19:48:59.920Z,51.13
2022-12-24T19:51:30.697Z,57.67
2022-12-24T19:54:00.399Z,55.27
2022-12-24T19:56:30.747Z,52.10
2022-12-24T19:59:00.169Z,52.93
2022-12-24T20:01:30.857Z,53.90
2022-12-24T20:03:59.582Z,57.03
2022-12-24T20:06:31.482Z,56.33
2022-12-24T20:09:01.556Z,55.53
2022-12-24T20:11:30.375Z,53.80
2022-12-24T20:13:59.807Z,54.57
2022-12-24T20:16:29.527Z,53.90
2022-12-24T20:18:59.553Z,55.63
2022-12-24T20:21:28.504Z,48.70
2022-12-24T20:23:58.256Z,50.23
2022-12-24T20:26:28.438Z,55.67
2022-12-24T20:28:56.784Z,57.93
2022-12-24T20:31:27.160Z,50.83
2022-12-24T20:33:55.804Z,51.70
2022-12-24T20:36:25.969Z,49.10
2022-12-24T20:38:54.648Z,48.27
2022-12-24T20:41:26.145Z,48.47
2022-12-24T20:43:54.422Z,51.30
2022-12-24T20:46:24.463Z,52.57
2022-12-24T20:48:53.146Z,48.17
2022-12-24T20:51:24.579Z,52.57
2022-12-24T20:53:54.643Z,52.33
2022-12-24T20:56:24.965Z,52.70
2022-12-24T20:58:53.626Z,45.10
2022-12-24T21:01:24.618Z,53.80
2022-12-24T21:03:53.792Z,51.20
2022-12-24T21:06:24.534Z,52.77
2022-12-24T21:08:54.050Z,51.33
2022-12-24T21:11:41.661Z,52.53
2022-12-24T21:14:10.092Z,48.90
2022-12-24T21:16:39.836Z,57.47
2022-12-24T21:19:09.437Z,52.03
2022-12-24T21:21:38.199Z,53.53
2022-12-24T21:24:07.274Z,59.90
2022-12-24T21:26:38.425Z,55.20
2022-12-24T21:29:08.279Z,55.13
2022-12-24T21:31:37.190Z,56.33
2022-12-24T21:34:05.684Z,48.73
2022-12-24T21:36:33.982Z,48.00
2022-12-24T21:39:02.274Z,51.87
2022-12-24T21:41:30.616Z,50.57
2022-12-24T21:44:02.108Z,54.38
2022-12-24T21:46:30.535Z,45.90
2022-12-24T21:49:16.493Z,43.10
2022-12-24T21:51:46.936Z,45.17
2022-12-24T21:54:31.632Z,43.53
2022-12-24T21:57:19.593Z,46.97
2022-12-24T21:59:51.804Z,46.50
2022-12-24T22:02:22.807Z,43.93
2022-12-24T22:04:51.268Z,45.50
2022-12-24T22:07:44.903Z,41.63
2022-12-24T22:10:32.394Z,50.60
2022-12-24T22:13:06.401Z,42.90
2022-12-24T22:15:36.903Z,43.53
2022-12-24T22:18:05.483Z,37.23
2022-12-24T22:20:33.755Z,39.90
2022-12-24T22:23:02.056Z,44.13
2022-12-24T22:25:30.515Z,40.53
2022-12-24T22:27:58.994Z,40.77
2022-12-24T22:30:27.524Z,44.60
2022-12-24T22:32:57.349Z,37.37
2022-12-24T22:35:25.826Z,42.45
2022-12-24T22:37:59.619Z,44.33
2022-12-24T22:40:28.604Z,39.30
2022-12-24T22:42:56.869Z,39.77
2022-12-24T22:45:25.123Z,43.00
2022-12-24T22:47:53.399Z,43.27
2022-12-24T22:50:23.237Z,41.60
2022-12-24T22:52:52.676Z,39.57
2022-12-24T22:55:21.293Z,42.30
2022-12-24T22:57:49.815Z,41.80
2022-12-24T23:00:39.418Z,39.17
2022-12-24T23:03:08.603Z,37.80
2022-12-24T23:05:38.608Z,40.93
2022-12-24T23:08:08.491Z,41.23
2022-12-24T23:10:37.337Z,36.50
2022-12-24T23:13:23.346Z,36.53
2022-12-24T23:15:52.025Z,44.13
2022-12-24T23:18:20.416Z,39.30
2022-12-24T23:20:50.130Z,39.93
2022-12-24T23:23:18.449Z,40.03
2022-12-24T23:25:46.715Z,38.17
2022-12-24T23:28:15.212Z,38.20
2022-12-24T23:30:46.333Z,42.73
2022-12-24T23:33:14.644Z,39.57
2022-12-24T23:35:42.911Z,38.97
2022-12-24T23:38:12.565Z,38.07
2022-12-24T23:40:42.990Z,44.40
2022-12-24T23:43:11.276Z,45.40
2022-12-24T23:45:39.531Z,40.63
2022-12-24T23:48:07.792Z,39.17
2022-12-24T23:50:36.067Z,43.33
2022-12-24T23:53:04.728Z,41.30
2022-12-24T23:55:34.449Z,37.63
2022-12-24T23:58:02.745Z,40.73
